createdAt,value
2022-10-31T00:48:21.185Z,101324.47
2022-10-31T03:39:10.464Z,101260.88
2022-10-31T05:37:55.128Z,101192.50
2022-10-31T06:08:58.385Z,101141.53
2022-10-31T06:45:42.891Z,101134.00
2022-10-31T07:19:18.259Z,101148.50
2022-10-31T07:38:49.792Z,101144.50
2022-10-31T07:51:53.744Z,101131.81
2022-10-31T07:55:32.498Z,101130.63
2022-10-31T08:01:35.036Z,101156.19
2022-10-31T08:04:23.322Z,101118.75
2022-10-31T08:07:21.632Z,101130.41
2022-10-31T08:10:08.457Z,101138.06
2022-10-31T08:13:33.649Z,101134.38
2022-10-31T08:19:58.296Z,101123.72
2022-10-31T08:22:56.086Z,101139.94
2022-10-31T08:30:07.726Z,101143.09
2022-10-31T08:36:23.648Z,101125.38
2022-10-31T08:39:00.636Z,101121.28
2022-10-31T08:41:41.694Z,101134.59
2022-10-31T08:44:14.020Z,101115.19
2022-10-31T08:46:59.756Z,101118.22
2022-10-31T08:50:13.753Z,101113.69
2022-10-31T08:53:04.801Z,101082.63
2022-10-31T08:55:49.325Z,101120.63
2022-10-31T08:58:53.331Z,101079.53
2022-10-31T09:01:29.024Z,101097.16
2022-10-31T09:03:57.979Z,101092.44
2022-10-31T09:06:27.431Z,101106.78
2022-10-31T09:09:06.192Z,101096.88
2022-10-31T09:12:04.298Z,101064.63
2022-10-31T09:15:13.637Z,101074.91
2022-10-31T09:21:02.123Z,101074.53
2022-10-31T09:23:49.162Z,101048.34
2022-10-31T09:26:17.420Z,101053.47
2022-10-31T09:29:13.218Z,101028.44
2022-10-31T09:32:16.728Z,101051.16
2022-10-31T09:34:58.391Z,101047.44
2022-10-31T09:37:48.277Z,101016.41
2022-10-31T09:40:20.054Z,101036.06
2022-10-31T09:42:58.439Z,101029.69
2022-10-31T09:45:32.898Z,101024.00
2022-10-31T09:48:19.866Z,101021.31
2022-10-31T09:51:08.830Z,101029.97
2022-10-31T09:54:09.072Z,101025.66
2022-10-31T10:00:05.768Z,101030.09
2022-10-31T10:02:59.143Z,100996.53
2022-10-31T10:05:38.346Z,100996.97
2022-10-31T10:08:20.680Z,101017.44
2022-10-31T10:11:31.306Z,101003.84
2022-10-31T10:14:22.045Z,101001.72
2022-10-31T10:17:14.680Z,100986.94
2022-10-31T10:20:21.057Z,100984.91
2022-10-31T10:23:02.165Z,100998.59
2022-10-31T10:25:36.925Z,100993.03
2022-10-31T10:28:21.056Z,100989.16
2022-10-31T10:30:50.981Z,100986.66
2022-10-31T10:33:22.940Z,100966.31
2022-10-31T10:36:00.229Z,100965.56
2022-10-31T10:38:32.624Z,100944.69
2022-10-31T10:41:03.010Z,100962.53
2022-10-31T10:43:33.157Z,100948.09
2022-10-31T10:46:37.504Z,100946.78
2022-10-31T10:49:15.090Z,100943.44
2022-10-31T10:55:07.639Z,100945.31
2022-10-31T10:57:44.975Z,100932.53
2022-10-31T11:00:27.057Z,100935.09
2022-10-31T11:02:55.495Z,100925.38
2022-10-31T11:05:28.542Z,100939.72
2022-10-31T11:11:03.193Z,100896.28
2022-10-31T11:13:34.704Z,100913.63
2022-10-31T11:20:36.895Z,100897.53
2022-10-31T11:23:39.378Z,100895.63
2022-10-31T11:27:03.973Z,100893.25
2022-10-31T11:33:29.331Z,100891.34
2022-10-31T11:36:10.197Z,100867.22
2022-10-31T11:39:22.733Z,100849.47
2022-10-31T11:48:13.775Z,100838.50
2022-10-31T11:51:27.233Z,100835.81
2022-10-31T11:54:15.920Z,100818.88
2022-10-31T11:56:47.140Z,100824.75
2022-10-31T12:02:20.617Z,100834.69
2022-10-31T12:08:12.251Z,100780.03
2022-10-31T12:11:42.109Z,100806.22
2022-10-31T12:14:25.175Z,100794.28
2022-10-31T12:17:25.100Z,100776.94
2022-10-31T12:20:36.538Z,100795.06
2022-10-31T12:23:28.670Z,100790.34
2022-10-31T12:26:09.239Z,100787.88
2022-10-31T12:28:49.853Z,100779.63
2022-10-31T12:31:35.373Z,100764.72
2022-10-31T12:34:23.213Z,100773.44
2022-10-31T12:41:53.096Z,100756.97
2022-10-31T12:49:38.757Z,100683.25
2022-10-31T12:57:48.547Z,100686.59
2022-10-31T13:11:45.417Z,100668.22
2022-10-31T13:14:17.628Z,100671.75
2022-10-31T13:17:19.940Z,100669.03
2022-10-31T13:23:29.861Z,100641.72
2022-10-31T13:26:03.241Z,100631.97
2022-10-31T13:30:35.823Z,100608.78
2022-10-31T13:32:35.061Z,100597.81
2022-10-31T13:41:49.318Z,100588.47
2022-10-31T13:44:28.244Z,100559.31
2022-10-31T13:46:57.685Z,100573.19
2022-10-31T13:53:24.428Z,100561.81
2022-10-31T13:56:05.889Z,100538.41
2022-10-31T13:58:34.029Z,100533.03
2022-10-31T14:01:15.302Z,100534.88
2022-10-31T14:06:54.080Z,100475.72
2022-10-31T14:09:42.134Z,100478.44
2022-10-31T14:13:08.878Z,100498.47
2022-10-31T14:15:55.463Z,100459.16
2022-10-31T14:21:46.886Z,100483.75
2022-10-31T14:28:03.457Z,100454.78
2022-10-31T14:30:35.049Z,100461.84
2022-10-31T14:33:53.392Z,100433.66
2022-10-31T14:36:40.782Z,100428.13
2022-10-31T14:39:38.892Z,100423.16
2022-10-31T14:43:14.220Z,100402.28
2022-10-31T14:46:04.471Z,100405.25
2022-10-31T14:49:12.647Z,100377.53
2022-10-31T14:55:36.938Z,100388.31
2022-10-31T14:58:10.557Z,100363.88
2022-10-31T15:00:38.762Z,100369.09
2022-10-31T15:03:37.466Z,100313.91
2022-10-31T15:06:17.878Z,100350.75
2022-10-31T15:09:06.654Z,100306.28
2022-10-31T15:11:52.982Z,100340.41
2022-10-31T15:14:31.043Z,100330.91
2022-10-31T15:17:00.475Z,100321.03
2022-10-31T15:20:04.808Z,100317.72
2022-10-31T15:22:46.107Z,100297.91
2022-10-31T15:25:18.208Z,100314.03
2022-10-31T15:27:52.744Z,100298.75
2022-10-31T15:30:40.297Z,100291.31
2022-10-31T15:33:39.222Z,100280.38
2022-10-31T15:36:29.934Z,100283.88
2022-10-31T15:39:00.613Z,100281.41
2022-10-31T15:41:37.366Z,100291.50
2022-10-31T15:44:20.481Z,100276.63
2022-10-31T15:46:58.946Z,100272.28
2022-10-31T15:49:31.590Z,100262.38
2022-10-31T15:52:01.840Z,100244.22
2022-10-31T15:54:30.720Z,100248.78
2022-10-31T16:00:11.412Z,100220.50
2022-10-31T16:02:43.637Z,100227.13
2022-10-31T16:05:22.700Z,100225.03
2022-10-31T16:07:57.160Z,100214.09
2022-10-31T16:10:26.197Z,100214.09
2022-10-31T16:12:57.740Z,100214.94
2022-10-31T16:15:27.481Z,100193.84
2022-10-31T16:18:01.282Z,100182.72
2022-10-31T16:20:33.140Z,100195.09
2022-10-31T16:23:08.700Z,100175.69
2022-10-31T16:25:52.159Z,100167.00
2022-10-31T16:28:28.894Z,100187.88
2022-10-31T16:31:01.584Z,100184.38
2022-10-31T16:33:32.002Z,100166.00
2022-10-31T16:36:15.724Z,100145.38
2022-10-31T16:41:43.403Z,100148.25
2022-10-31T16:44:20.285Z,100140.19
2022-10-31T16:46:50.142Z,100137.72
2022-10-31T16:49:22.042Z,100135.25
2022-10-31T16:51:50.049Z,100118.94
2022-10-31T16:54:18.036Z,100116.06
2022-10-31T16:56:46.039Z,100118.75
2022-10-31T16:59:16.541Z,100107.81
2022-10-31T17:01:45.503Z,100110.91
2022-10-31T17:04:16.443Z,100096.69
2022-10-31T17:06:48.388Z,100101.59
2022-10-31T17:09:29.911Z,100101.00
2022-10-31T17:11:58.267Z,100107.78
2022-10-31T17:14:26.332Z,100089.84
2022-10-31T17:16:57.915Z,100077.47
2022-10-31T17:19:27.293Z,100079.13
2022-10-31T17:21:55.332Z,100066.16
2022-10-31T17:24:24.967Z,100046.31
2022-10-31T17:26:53.462Z,100031.47
2022-10-31T17:29:21.715Z,100063.06
2022-10-31T17:32:06.164Z,100035.59
2022-10-31T17:34:36.265Z,100028.81
2022-10-31T17:37:04.893Z,100025.91
2022-10-31T17:39:36.072Z,100021.38
2022-10-31T17:42:04.253Z,100004.06
2022-10-31T17:44:39.654Z,100012.50
2022-10-31T17:47:16.303Z,99992.31
2022-10-31T17:49:45.775Z,99991.50
2022-10-31T17:52:13.934Z,99997.47
2022-10-31T17:54:41.923Z,99986.34
2022-10-31T17:57:13.985Z,99980.56
2022-10-31T17:59:42.135Z,99971.13
2022-10-31T18:02:10.651Z,99960.78
2022-10-31T18:04:41.638Z,99966.34
2022-10-31T18:07:20.255Z,99962.06
2022-10-31T18:09:48.801Z,99958.34
2022-10-31T18:12:16.963Z,99936.50
2022-10-31T18:14:48.456Z,99953.78
2022-10-31T18:17:16.983Z,99946.38
2022-10-31T18:19:45.843Z,99938.13
2022-10-31T18:22:20.917Z,99929.69
2022-10-31T18:24:50.238Z,99900.03
2022-10-31T18:27:20.475Z,99897.78
2022-10-31T18:29:48.617Z,99922.47
2022-10-31T18:32:16.640Z,99921.84
2022-10-31T18:34:46.855Z,99923.28
2022-10-31T18:37:16.664Z,99912.16
2022-10-31T18:39:47.096Z,99907.44
2022-10-31T18:42:19.862Z,99897.75
2022-10-31T18:44:50.269Z,99895.06
2022-10-31T18:47:19.430Z,99891.38
2022-10-31T18:49:56.585Z,99876.31
2022-10-31T18:52:26.039Z,99877.97
2022-10-31T18:55:02.083Z,99866.00
2022-10-31T18:57:33.208Z,99877.34
2022-10-31T19:00:02.445Z,99840.50
2022-10-31T19:02:32.777Z,99863.97
2022-10-31T19:05:03.524Z,99870.16
2022-10-31T19:07:33.222Z,99848.53
2022-10-31T19:10:01.420Z,99857.38
2022-10-31T19:12:33.157Z,99847.09
2022-10-31T19:15:01.092Z,99846.06
2022-10-31T19:17:31.760Z,99820.72
2022-10-31T19:20:00.490Z,99817.03
2022-10-31T19:22:42.476Z,99826.50
2022-10-31T19:25:17.850Z,99819.28
2022-10-31T19:27:48.742Z,99815.97
2022-10-31T19:30:17.335Z,99782.84
2022-10-31T19:32:53.011Z,99787.38
2022-10-31T19:35:21.247Z,99748.25
2022-10-31T19:37:49.730Z,99756.88
2022-10-31T19:40:26.729Z,99748.84
2022-10-31T19:42:55.080Z,99766.13
2022-10-31T19:45:29.577Z,99750.88
2022-10-31T19:47:58.075Z,99755.19
2022-10-31T19:50:30.476Z,99727.41
2022-10-31T19:52:58.835Z,99727.22
2022-10-31T19:55:28.813Z,99708.28
2022-10-31T20:02:31.120Z,99722.88
2022-10-31T20:05:37.528Z,99720.00
2022-10-31T20:08:13.372Z,99714.06
2022-10-31T20:10:56.175Z,99703.75
2022-10-31T20:13:26.145Z,99683.63
2022-10-31T20:15:57.263Z,99683.41
2022-10-31T20:18:29.763Z,99698.38
2022-10-31T20:21:04.833Z,99695.50
2022-10-31T20:23:34.726Z,99699.19
2022-10-31T20:26:04.973Z,99673.47
2022-10-31T20:28:37.605Z,99672.03
2022-10-31T20:31:11.244Z,99689.31
2022-10-31T20:33:40.684Z,99675.13
2022-10-31T20:36:09.104Z,99681.94
2022-10-31T20:38:38.826Z,99679.88
2022-10-31T20:41:11.147Z,99658.88
2022-10-31T20:43:39.297Z,99639.59
2022-10-31T20:46:08.431Z,99659.31
2022-10-31T20:48:36.555Z,99646.16
2022-10-31T20:51:06.295Z,99647.38
2022-10-31T20:53:34.711Z,99646.94
2022-10-31T20:56:06.977Z,99650.28
2022-10-31T20:58:37.569Z,99626.44
2022-10-31T21:01:05.988Z,99639.78
2022-10-31T21:03:37.069Z,99632.97
2022-10-31T21:06:16.700Z,99629.28
2022-10-31T21:08:50.200Z,99613.28
2022-10-31T21:11:23.742Z,99627.47
2022-10-31T21:13:59.032Z,99607.53
2022-10-31T21:16:32.758Z,99618.00
2022-10-31T21:19:08.709Z,99612.03
2022-10-31T21:21:40.282Z,99624.19
2022-10-31T21:24:12.972Z,99631.78
2022-10-31T21:26:42.896Z,99624.59
2022-10-31T21:29:16.185Z,99628.09
2022-10-31T21:31:45.596Z,99636.69
2022-10-31T21:34:13.568Z,99626.44
2022-10-31T21:36:43.966Z,99616.56
2022-10-31T21:39:12.228Z,99613.31
2022-10-31T21:41:40.595Z,99614.53
2022-10-31T21:44:08.923Z,99596.47
2022-10-31T21:46:40.047Z,99643.56
2022-10-31T21:49:08.329Z,99647.47
2022-10-31T21:51:38.224Z,99657.34
2022-10-31T21:54:23.901Z,99669.66
2022-10-31T21:56:52.379Z,99668.00
2022-10-31T21:59:20.891Z,99656.41
2022-10-31T22:01:51.922Z,99639.94
2022-10-31T22:04:20.232Z,99683.19
2022-10-31T22:06:48.551Z,99664.81
2022-10-31T22:09:17.502Z,99684.34
2022-10-31T22:11:51.354Z,99698.75
2022-10-31T22:14:19.500Z,99699.97
2022-10-31T22:16:49.876Z,99715.22
2022-10-31T22:19:24.673Z,99716.41
2022-10-31T22:21:52.947Z,99715.22
2022-10-31T22:24:23.439Z,99720.19
2022-10-31T22:26:51.447Z,99720.78
2022-10-31T22:29:20.230Z,99735.78
2022-10-31T22:31:51.911Z,99743.19
2022-10-31T22:34:25.551Z,99717.44
2022-10-31T22:36:53.588Z,99713.75
2022-10-31T22:39:29.553Z,99738.69
2022-10-31T22:41:57.861Z,99736.63
2022-10-31T22:44:31.018Z,99725.91
2022-10-31T22:47:01.438Z,99746.50
2022-10-31T22:49:33.048Z,99763.34
2022-10-31T22:52:03.866Z,99754.69
2022-10-31T22:54:32.353Z,99764.53
2022-10-31T22:57:00.260Z,99781.00
2022-10-31T22:59:28.289Z,99777.25
2022-10-31T23:01:59.417Z,99770.22
2022-10-31T23:04:31.807Z,99794.88
2022-10-31T23:06:59.805Z,99796.91
2022-10-31T23:09:27.945Z,99807.47
2022-10-31T23:12:18.189Z,99793.69
2022-10-31T23:14:48.719Z,99792.63
2022-10-31T23:17:18.658Z,99798.81
2022-10-31T23:19:49.837Z,99797.31
2022-10-31T23:22:17.903Z,99808.09
2022-10-31T23:24:48.652Z,99815.34
2022-10-31T23:27:20.393Z,99824.66
2022-10-31T23:29:51.485Z,99829.03
2022-10-31T23:35:09.371Z,99875.75
2022-10-31T23:37:39.480Z,99852.16
2022-10-31T23:40:13.930Z,99924.50
2022-10-31T23:42:43.671Z,99915.50
2022-10-31T23:45:11.882Z,99939.59
2022-10-31T23:47:43.241Z,99910.66
2022-10-31T23:50:15.124Z,99973.78
2022-10-31T23:52:43.191Z,99849.78
2022-10-31T23:55:11.114Z,100002.66
2022-10-31T23:57:39.068Z,99992.63
